sensor_id;sensor_type;location;lat;lon;timestamp;temperature;humidity
47520;DHT22;33252;48.122;11.538;2023-05-10T00:00:27;14.10;99.90
47520;DHT22;33252;48.122;11.538;2023-05-10T00:02:52;14.20;99.90
47520;DHT22;33252;48.122;11.538;2023-05-10T00:05:18;14.20;99.90
47520;DHT22;33252;48.122;11.538;2023-05-10T00:07:44;14.10;99.90
47520;DHT22;33252;48.122;11.538;2023-05-10T00:10:10;14.10;99.90
47520;DHT22;33252;48.122;11.538;2023-05-10T00:12:36;14.20;99.90
47520;DHT22;33252;48.122;11.538;2023-05-10T00:15:02;14.00;99.90
47520;DHT22;33252;48.122;11.538;2023-05-10T00:17:28;14.10;99.90
47520;DHT22;33252;48.122;11.538;2023-05-10T00:19:54;14.10;99.90
47520;DHT22;33252;48.122;11.538;2023-05-10T00:22:20;14.00;99.90
47520;DHT22;33252;48.122;11.538;2023-05-10T00:24:46;14.00;99.90
47520;DHT22;33252;48.122;11.538;2023-05-10T00:27:12;14.10;99.90
47520;DHT22;33252;48.122;11.538;2023-05-10T00:29:37;14.10;99.90
47520;DHT22;33252;48.122;11.538;2023-05-10T00:32:03;13.90;99.90
47520;DHT22;33252;48.122;11.538;2023-05-10T00:34:29;14.10;99.90
47520;DHT22;33252;48.122;11.538;2023-05-10T00:36:54;14.00;99.90
47520;DHT22;33252;48.122;11.538;2023-05-10T00:39:21;13.80;99.90
47520;DHT22;33252;48.122;11.538;2023-05-10T00:41:46;14.00;99.90
47520;DHT22;33252;48.122;11.538;2023-05-10T00:44:12;14.10;99.90
47520;DHT22;33252;48.122;11.538;2023-05-10T00:46:37;13.90;99.90
47520;DHT22;33252;48.122;11.538;2023-05-10T00:49:03;13.70;99.90
47520;DHT22;33252;48.122;11.538;2023-05-10T00:51:30;13.80;99.90
47520;DHT22;33252;48.122;11.538;2023-05-10T00:53:56;13.90;99.90
47520;DHT22;33252;48.122;11.538;2023-05-10T00:56:22;13.90;99.90
47520;DHT22;33252;48.122;11.538;2023-05-10T00:58:50;13.90;99.90
47520;DHT22;33252;48.122;11.538;2023-05-10T01:01:16;13.70;99.90
47520;DHT22;33252;48.122;11.538;2023-05-10T01:03:41;13.60;99.90
47520;DHT22;33252;48.122;11.538;2023-05-10T01:06:07;13.60;99.90
47520;DHT22;33252;48.122;11.538;2023-05-10T01:08:35;13.80;99.90
47520;DHT22;33252;48.122;11.538;2023-05-10T01:11:01;13.90;99.90
47520;DHT22;33252;48.122;11.538;2023-05-10T01:13:30;13.90;99.90
47520;DHT22;33252;48.122;11.538;2023-05-10T01:15:58;13.80;99.90
47520;DHT22;33252;48.122;11.538;2023-05-10T01:18:27;13.80;99.90
47520;DHT22;33252;48.122;11.538;2023-05-10T01:21:17;13.80;99.90
47520;DHT22;33252;48.122;11.538;2023-05-10T01:32:44;13.70;99.90
47520;DHT22;33252;48.122;11.538;2023-05-10T01:35:39;13.70;99.90
47520;DHT22;33252;48.122;11.538;2023-05-10T01:38:28;13.60;99.90
47520;DHT22;33252;48.122;11.538;2023-05-10T01:43:36;13.60;99.90
47520;DHT22;33252;48.122;11.538;2023-05-10T01:46:07;13.60;99.90
47520;DHT22;33252;48.122;11.538;2023-05-10T01:48:42;13.60;99.90
47520;DHT22;33252;48.122;11.538;2023-05-10T01:51:16;13.70;99.90
47520;DHT22;33252;48.122;11.538;2023-05-10T01:53:46;13.70;99.90
47520;DHT22;33252;48.122;11.538;2023-05-10T01:56:14;13.60;99.90
47520;DHT22;33252;48.122;11.538;2023-05-10T01:58:43;13.60;99.90
47520;DHT22;33252;48.122;11.538;2023-05-10T02:01:11;13.70;99.90
47520;DHT22;33252;48.122;11.538;2023-05-10T02:03:38;13.70;99.90
47520;DHT22;33252;48.122;11.538;2023-05-10T02:06:05;13.70;99.90
47520;DHT22;33252;48.122;11.538;2023-05-10T02:08:35;13.70;99.90
47520;DHT22;33252;48.122;11.538;2023-05-10T02:11:02;13.60;99.90
47520;DHT22;33252;48.122;11.538;2023-05-10T02:13:29;13.60;99.90
47520;DHT22;33252;48.122;11.538;2023-05-10T02:15:59;13.60;99.90
47520;DHT22;33252;48.122;11.538;2023-05-10T02:18:27;13.70;99.90
47520;DHT22;33252;48.122;11.538;2023-05-10T02:20:54;13.70;99.90
47520;DHT22;33252;48.122;11.538;2023-05-10T02:23:20;13.70;99.90
47520;DHT22;33252;48.122;11.538;2023-05-10T02:25:48;13.60;99.90
47520;DHT22;33252;48.122;11.538;2023-05-10T02:28:15;13.60;99.90
47520;DHT22;33252;48.122;11.538;2023-05-10T02:30:43;13.70;99.90
47520;DHT22;33252;48.122;11.538;2023-05-10T02:33:09;13.60;99.90
47520;DHT22;33252;48.122;11.538;2023-05-10T02:35:35;13.60;99.90
47520;DHT22;33252;48.122;11.538;2023-05-10T02:38:01;13.60;99.90
47520;DHT22;33252;48.122;11.538;2023-05-10T02:40:28;13.60;99.90
47520;DHT22;33252;48.122;11.538;2023-05-10T02:42:55;13.60;99.90
47520;DHT22;33252;48.122;11.538;2023-05-10T02:45:24;13.60;99.90
47520;DHT22;33252;48.122;11.538;2023-05-10T02:47:51;13.70;99.90
47520;DHT22;33252;48.122;11.538;2023-05-10T02:50:18;13.60;99.90
47520;DHT22;33252;48.122;11.538;2023-05-10T02:52:49;13.60;99.90
47520;DHT22;33252;48.122;11.538;2023-05-10T02:55:17;13.50;99.90
47520;DHT22;33252;48.122;11.538;2023-05-10T02:57:59;13.50;99.90
47520;DHT22;33252;48.122;11.538;2023-05-10T03:00:25;13.50;99.90
47520;DHT22;33252;48.122;11.538;2023-05-10T03:02:51;13.60;99.90
47520;DHT22;33252;48.122;11.538;2023-05-10T03:05:17;13.50;99.90
47520;DHT22;33252;48.122;11.538;2023-05-10T03:07:43;13.50;99.90
47520;DHT22;33252;48.122;11.538;2023-05-10T03:10:10;13.60;99.90
47520;DHT22;33252;48.122;11.538;2023-05-10T03:13:06;13.60;99.90
47520;DHT22;33252;48.122;11.538;2023-05-10T03:16:08;13.60;99.90
47520;DHT22;33252;48.122;11.538;2023-05-10T03:18:56;13.60;99.90
47520;DHT22;33252;48.122;11.538;2023-05-10T03:21:29;13.40;99.90
47520;DHT22;33252;48.122;11.538;2023-05-10T03:24:08;13.40;99.90
47520;DHT22;33252;48.122;11.538;2023-05-10T03:26:37;13.40;99.90
47520;DHT22;33252;48.122;11.538;2023-05-10T03:29:05;13.50;99.90
47520;DHT22;33252;48.122;11.538;2023-05-10T03:31:32;13.50;99.90
47520;DHT22;33252;48.122;11.538;2023-05-10T03:33:57;13.60;99.90
47520;DHT22;33252;48.122;11.538;2023-05-10T03:36:23;13.40;99.90
47520;DHT22;33252;48.122;11.538;2023-05-10T03:38:49;13.50;99.90
47520;DHT22;33252;48.122;11.538;2023-05-10T03:41:15;13.50;99.90
47520;DHT22;33252;48.122;11.538;2023-05-10T03:43:41;13.50;99.90
47520;DHT22;33252;48.122;11.538;2023-05-10T03:46:07;13.40;99.90
47520;DHT22;33252;48.122;11.538;2023-05-10T03:48:32;13.40;99.90
47520;DHT22;33252;48.122;11.538;2023-05-10T03:50:58;13.40;99.90
47520;DHT22;33252;48.122;11.538;2023-05-10T03:53:24;13.40;99.90
47520;DHT22;33252;48.122;11.538;2023-05-10T03:55:50;13.40;99.90
47520;DHT22;33252;48.122;11.538;2023-05-10T03:58:16;13.30;99.90
47520;DHT22;33252;48.122;11.538;2023-05-10T04:00:41;13.30;99.90
47520;DHT22;33252;48.122;11.538;2023-05-10T04:03:10;13.20;99.90
47520;DHT22;33252;48.122;11.538;2023-05-10T04:05:36;13.20;99.90
47520;DHT22;33252;48.122;11.538;2023-05-10T04:08:02;13.40;99.90
47520;DHT22;33252;48.122;11.538;2023-05-10T04:10:29;13.30;99.90
47520;DHT22;33252;48.122;11.538;2023-05-10T04:12:55;13.40;99.90
47520;DHT22;33252;48.122;11.538;2023-05-10T04:15:21;13.30;99.90
47520;DHT22;33252;48.122;11.538;2023-05-10T04:17:46;13.20;99.90
47520;DHT22;33252;48.122;11.538;2023-05-10T04:20:12;13.30;99.90
47520;DHT22;33252;48.122;11.538;2023-05-10T04:22:38;13.20;99.90
47520;DHT22;33252;48.122;11.538;2023-05-10T04:25:04;13.20;99.90
47520;DHT22;33252;48.122;11.538;2023-05-10T04:27:30;13.30;99.90
47520;DHT22;33252;48.122;11.538;2023-05-10T04:29:56;13.20;99.90
47520;DHT22;33252;48.122;11.538;2023-05-10T04:32:22;13.30;99.90
47520;DHT22;33252;48.122;11.538;2023-05-10T04:34:48;13.30;99.90
47520;DHT22;33252;48.122;11.538;2023-05-10T04:37:14;13.20;99.90
47520;DHT22;33252;48.122;11.538;2023-05-10T04:39:39;13.20;99.90
47520;DHT22;33252;48.122;11.538;2023-05-10T04:42:05;13.20;99.90
47520;DHT22;33252;48.122;11.538;2023-05-10T04:44:31;13.20;99.90
47520;DHT22;33252;48.122;11.538;2023-05-10T04:46:57;13.20;99.90
47520;DHT22;33252;48.122;11.538;2023-05-10T04:49:23;13.30;99.90
47520;DHT22;33252;48.122;11.538;2023-05-10T04:51:48;13.20;99.90
47520;DHT22;33252;48.122;11.538;2023-05-10T04:54:14;12.80;99.90
47520;DHT22;33252;48.122;11.538;2023-05-10T04:56:40;12.90;99.90
47520;DHT22;33252;48.122;11.538;2023-05-10T04:59:06;12.90;99.90
47520;DHT22;33252;48.122;11.538;2023-05-10T05:01:32;12.80;99.90
47520;DHT22;33252;48.122;11.538;2023-05-10T05:03:58;12.80;99.90
47520;DHT22;33252;48.122;11.538;2023-05-10T05:06:23;12.60;99.90
47520;DHT22;33252;48.122;11.538;2023-05-10T05:08:50;12.60;99.90
47520;DHT22;33252;48.122;11.538;2023-05-10T05:11:19;12.60;99.90
47520;DHT22;33252;48.122;11.538;2023-05-10T05:13:45;12.50;99.90
47520;DHT22;33252;48.122;11.538;2023-05-10T05:16:10;12.50;99.90
47520;DHT22;33252;48.122;11.538;2023-05-10T05:18:36;12.50;99.90
47520;DHT22;33252;48.122;11.538;2023-05-10T05:21:02;12.40;99.90
47520;DHT22;33252;48.122;11.538;2023-05-10T05:23:28;12.40;99.90
47520;DHT22;33252;48.122;11.538;2023-05-10T05:25:53;12.20;99.90
47520;DHT22;33252;48.122;11.538;2023-05-10T05:28:20;12.40;99.90
47520;DHT22;33252;48.122;11.538;2023-05-10T05:30:46;12.40;99.90
47520;DHT22;33252;48.122;11.538;2023-05-10T05:33:13;12.40;99.90
47520;DHT22;33252;48.122;11.538;2023-05-10T05:35:39;12.50;99.90
47520;DHT22;33252;48.122;11.538;2023-05-10T05:38:05;12.30;99.90
47520;DHT22;33252;48.122;11.538;2023-05-10T05:40:31;12.20;99.90
47520;DHT22;33252;48.122;11.538;2023-05-10T05:42:57;12.30;99.90
47520;DHT22;33252;48.122;11.538;2023-05-10T05:45:22;12.30;99.90
47520;DHT22;33252;48.122;11.538;2023-05-10T05:47:48;12.20;99.90
47520;DHT22;33252;48.122;11.538;2023-05-10T05:50:13;12.20;99.90
47520;DHT22;33252;48.122;11.538;2023-05-10T05:52:39;12.00;99.90
47520;DHT22;33252;48.122;11.538;2023-05-10T05:55:05;12.00;99.90
47520;DHT22;33252;48.122;11.538;2023-05-10T05:57:31;12.20;99.90
47520;DHT22;33252;48.122;11.538;2023-05-10T05:59:56;12.00;99.90
47520;DHT22;33252;48.122;11.538;2023-05-10T06:02:22;12.20;99.90
47520;DHT22;33252;48.122;11.538;2023-05-10T06:04:48;12.10;99.90
47520;DHT22;33252;48.122;11.538;2023-05-10T06:07:13;12.10;99.90
47520;DHT22;33252;48.122;11.538;2023-05-10T06:09:39;12.20;99.90
47520;DHT22;33252;48.122;11.538;2023-05-10T06:12:05;12.30;99.90
47520;DHT22;33252;48.122;11.538;2023-05-10T06:14:30;12.40;99.90
47520;DHT22;33252;48.122;11.538;2023-05-10T06:16:56;12.40;99.90
47520;DHT22;33252;48.122;11.538;2023-05-10T06:19:21;12.50;99.90
47520;DHT22;33252;48.122;11.538;2023-05-10T06:21:47;12.50;99.90
47520;DHT22;33252;48.122;11.538;2023-05-10T06:24:13;12.40;99.90
47520;DHT22;33252;48.122;11.538;2023-05-10T06:26:38;12.60;99.90
47520;DHT22;33252;48.122;11.538;2023-05-10T06:29:04;12.40;99.90
47520;DHT22;33252;48.122;11.538;2023-05-10T06:31:30;12.50;99.90
47520;DHT22;33252;48.122;11.538;2023-05-10T06:33:55;12.60;99.90
47520;DHT22;33252;48.122;11.538;2023-05-10T06:36:21;12.70;99.90
47520;DHT22;33252;48.122;11.538;2023-05-10T06:38:47;12.80;99.90
47520;DHT22;33252;48.122;11.538;2023-05-10T06:41:13;12.90;99.90
47520;DHT22;33252;48.122;11.538;2023-05-10T06:43:38;13.10;99.90
47520;DHT22;33252;48.122;11.538;2023-05-10T06:46:07;13.10;99.90
47520;DHT22;33252;48.122;11.538;2023-05-10T06:48:32;13.10;99.90
47520;DHT22;33252;48.122;11.538;2023-05-10T06:50:58;13.00;99.90
47520;DHT22;33252;48.122;11.538;2023-05-10T06:53:23;12.90;99.90
47520;DHT22;33252;48.122;11.538;2023-05-10T06:55:49;12.80;99.90
47520;DHT22;33252;48.122;11.538;2023-05-10T06:58:15;12.90;99.90
47520;DHT22;33252;48.122;11.538;2023-05-10T07:00:41;12.90;99.90
47520;DHT22;33252;48.122;11.538;2023-05-10T07:03:09;13.10;99.90
47520;DHT22;33252;48.122;11.538;2023-05-10T07:05:35;13.20;99.90
47520;DHT22;33252;48.122;11.538;2023-05-10T07:08:01;13.30;99.90
47520;DHT22;33252;48.122;11.538;2023-05-10T07:10:27;13.40;99.90
47520;DHT22;33252;48.122;11.538;2023-05-10T07:12:53;13.20;99.90
47520;DHT22;33252;48.122;11.538;2023-05-10T07:15:18;13.20;99.90
47520;DHT22;33252;48.122;11.538;2023-05-10T07:17:44;13.30;99.90
47520;DHT22;33252;48.122;11.538;2023-05-10T07:20:11;13.40;99.90
47520;DHT22;33252;48.122;11.538;2023-05-10T07:22:36;13.30;99.90
47520;DHT22;33252;48.122;11.538;2023-05-10T07:25:02;13.60;99.90
47520;DHT22;33252;48.122;11.538;2023-05-10T07:27:28;13.60;99.90
47520;DHT22;33252;48.122;11.538;2023-05-10T07:29:53;13.50;99.90
47520;DHT22;33252;48.122;11.538;2023-05-10T07:32:20;13.60;99.90
47520;DHT22;33252;48.122;11.538;2023-05-10T07:34:45;13.70;99.90
47520;DHT22;33252;48.122;11.538;2023-05-10T07:37:11;13.60;99.90
47520;DHT22;33252;48.122;11.538;2023-05-10T07:39:37;13.70;99.90
47520;DHT22;33252;48.122;11.538;2023-05-10T07:42:03;13.60;99.90
47520;DHT22;33252;48.122;11.538;2023-05-10T07:44:29;13.60;99.90
47520;DHT22;33252;48.122;11.538;2023-05-10T07:46:54;13.80;99.90
47520;DHT22;33252;48.122;11.538;2023-05-10T07:49:21;13.80;99.90
47520;DHT22;33252;48.122;11.538;2023-05-10T07:51:47;13.90;99.90
47520;DHT22;33252;48.122;11.538;2023-05-10T07:54:13;13.80;99.90
47520;DHT22;33252;48.122;11.538;2023-05-10T07:56:39;13.90;99.90
47520;DHT22;33252;48.122;11.538;2023-05-10T07:59:09;13.90;99.90
47520;DHT22;33252;48.122;11.538;2023-05-10T08:01:36;14.00;99.90
47520;DHT22;33252;48.122;11.538;2023-05-10T08:04:01;14.10;99.90
47520;DHT22;33252;48.122;11.538;2023-05-10T08:06:27;14.20;99.90
47520;DHT22;33252;48.122;11.538;2023-05-10T08:08:55;14.30;99.90
47520;DHT22;33252;48.122;11.538;2023-05-10T08:11:21;14.10;99.90
47520;DHT22;33252;48.122;11.538;2023-05-10T08:13:48;14.00;99.90
47520;DHT22;33252;48.122;11.538;2023-05-10T08:16:14;13.90;99.90
47520;DHT22;33252;48.122;11.538;2023-05-10T08:18:40;13.80;99.90
47520;DHT22;33252;48.122;11.538;2023-05-10T08:21:05;14.00;99.90
47520;DHT22;33252;48.122;11.538;2023-05-10T08:23:31;13.90;99.90
47520;DHT22;33252;48.122;11.538;2023-05-10T08:25:57;14.00;99.90
47520;DHT22;33252;48.122;11.538;2023-05-10T08:28:23;13.90;99.90
47520;DHT22;33252;48.122;11.538;2023-05-10T08:30:50;14.00;99.90
47520;DHT22;33252;48.122;11.538;2023-05-10T08:33:17;13.90;99.90
47520;DHT22;33252;48.122;11.538;2023-05-10T08:35:42;13.90;99.90
47520;DHT22;33252;48.122;11.538;2023-05-10T08:38:08;13.80;99.90
47520;DHT22;33252;48.122;11.538;2023-05-10T08:40:34;13.90;99.90
47520;DHT22;33252;48.122;11.538;2023-05-10T08:43:07;13.90;99.90
47520;DHT22;33252;48.122;11.538;2023-05-10T08:45:37;14.00;99.90
47520;DHT22;33252;48.122;11.538;2023-05-10T08:48:05;14.00;99.90
47520;DHT22;33252;48.122;11.538;2023-05-10T08:50:32;14.00;99.90
47520;DHT22;33252;48.122;11.538;2023-05-10T08:53:00;14.00;99.90
47520;DHT22;33252;48.122;11.538;2023-05-10T08:55:27;14.00;99.90
47520;DHT22;33252;48.122;11.538;2023-05-10T08:57:53;13.90;99.90
47520;DHT22;33252;48.122;11.538;2023-05-10T09:00:19;13.90;99.90
47520;DHT22;33252;48.122;11.538;2023-05-10T09:02:45;14.00;99.90
47520;DHT22;33252;48.122;11.538;2023-05-10T09:05:14;14.20;99.90
47520;DHT22;33252;48.122;11.538;2023-05-10T09:07:41;14.20;99.90
47520;DHT22;33252;48.122;11.538;2023-05-10T09:10:08;14.30;99.90
47520;DHT22;33252;48.122;11.538;2023-05-10T09:12:35;14.40;99.90
47520;DHT22;33252;48.122;11.538;2023-05-10T09:15:02;14.40;99.90
47520;DHT22;33252;48.122;11.538;2023-05-10T09:17:29;14.40;99.90
47520;DHT22;33252;48.122;11.538;2023-05-10T09:20:03;14.30;99.90
47520;DHT22;33252;48.122;11.538;2023-05-10T09:22:31;14.30;99.90
47520;DHT22;33252;48.122;11.538;2023-05-10T09:25:11;14.40;99.90
47520;DHT22;33252;48.122;11.538;2023-05-10T09:27:38;14.40;99.90
47520;DHT22;33252;48.122;11.538;2023-05-10T09:30:04;14.30;99.90
47520;DHT22;33252;48.122;11.538;2023-05-10T09:32:40;14.30;99.90
47520;DHT22;33252;48.122;11.538;2023-05-10T09:35:17;14.30;99.90
47520;DHT22;33252;48.122;11.538;2023-05-10T09:37:44;14.50;99.90
47520;DHT22;33252;48.122;11.538;2023-05-10T09:40:13;14.50;99.90
47520;DHT22;33252;48.122;11.538;2023-05-10T09:42:40;14.60;99.90
47520;DHT22;33252;48.122;11.538;2023-05-10T09:45:07;14.50;99.90
47520;DHT22;33252;48.122;11.538;2023-05-10T09:47:33;14.50;99.90
47520;DHT22;33252;48.122;11.538;2023-05-10T09:49:59;14.70;99.90
47520;DHT22;33252;48.122;11.538;2023-05-10T09:52:46;14.80;99.90
47520;DHT22;33252;48.122;11.538;2023-05-10T09:55:12;14.80;99.90
47520;DHT22;33252;48.122;11.538;2023-05-10T09:57:39;14.90;99.90
47520;DHT22;33252;48.122;11.538;2023-05-10T10:00:05;14.90;99.90
47520;DHT22;33252;48.122;11.538;2023-05-10T10:02:32;15.00;99.90
47520;DHT22;33252;48.122;11.538;2023-05-10T10:05:00;15.20;99.90
47520;DHT22;33252;48.122;11.538;2023-05-10T10:07:26;15.20;99.90
47520;DHT22;33252;48.122;11.538;2023-05-10T10:09:53;15.00;99.90
47520;DHT22;33252;48.122;11.538;2023-05-10T10:12:20;15.10;99.90
47520;DHT22;33252;48.122;11.538;2023-05-10T10:14:48;15.20;99.90
47520;DHT22;33252;48.122;11.538;2023-05-10T10:17:16;15.20;99.90
47520;DHT22;33252;48.122;11.538;2023-05-10T10:19:42;15.30;99.90
47520;DHT22;33252;48.122;11.538;2023-05-10T10:22:08;15.40;99.90
47520;DHT22;33252;48.122;11.538;2023-05-10T10:24:36;15.50;99.90
47520;DHT22;33252;48.122;11.538;2023-05-10T10:27:56;15.50;99.90
47520;DHT22;33252;48.122;11.538;2023-05-10T10:35:30;16.00;99.90
47520;DHT22;33252;48.122;11.538;2023-05-10T10:37:56;16.00;99.90
47520;DHT22;33252;48.122;11.538;2023-05-10T10:40:30;15.80;99.90
47520;DHT22;33252;48.122;11.538;2023-05-10T10:42:57;15.90;99.90
47520;DHT22;33252;48.122;11.538;2023-05-10T10:45:24;16.00;99.90
47520;DHT22;33252;48.122;11.538;2023-05-10T10:48:21;16.00;99.90
47520;DHT22;33252;48.122;11.538;2023-05-10T10:50:47;15.70;99.90
47520;DHT22;33252;48.122;11.538;2023-05-10T10:53:13;15.70;99.90
47520;DHT22;33252;48.122;11.538;2023-05-10T10:55:48;15.40;99.90
47520;DHT22;33252;48.122;11.538;2023-05-10T10:58:30;15.30;99.90
47520;DHT22;33252;48.122;11.538;2023-05-10T11:01:15;15.20;99.90
47520;DHT22;33252;48.122;11.538;2023-05-10T11:03:54;15.10;99.90
47520;DHT22;33252;48.122;11.538;2023-05-10T11:06:32;14.90;99.90
47520;DHT22;33252;48.122;11.538;2023-05-10T11:09:08;14.30;99.90
47520;DHT22;33252;48.122;11.538;2023-05-10T11:11:50;13.90;99.90
47520;DHT22;33252;48.122;11.538;2023-05-10T11:14:20;14.10;99.90
47520;DHT22;33252;48.122;11.538;2023-05-10T11:16:46;14.10;99.90
47520;DHT22;33252;48.122;11.538;2023-05-10T11:19:13;14.00;99.90
47520;DHT22;33252;48.122;11.538;2023-05-10T11:21:49;14.00;99.90
47520;DHT22;33252;48.122;11.538;2023-05-10T11:24:22;14.00;99.90
47520;DHT22;33252;48.122;11.538;2023-05-10T11:26:53;14.00;99.90
47520;DHT22;33252;48.122;11.538;2023-05-10T11:29:19;14.00;99.90
47520;DHT22;33252;48.122;11.538;2023-05-10T11:31:46;13.70;99.90
47520;DHT22;33252;48.122;11.538;2023-05-10T11:34:26;13.60;99.90
47520;DHT22;33252;48.122;11.538;2023-05-10T11:36:53;13.30;99.90
47520;DHT22;33252;48.122;11.538;2023-05-10T11:39:20;13.30;99.90
47520;DHT22;33252;48.122;11.538;2023-05-10T11:41:48;13.00;99.90
47520;DHT22;33252;48.122;11.538;2023-05-10T11:44:14;12.60;99.90
47520;DHT22;33252;48.122;11.538;2023-05-10T11:46:40;12.60;99.90
47520;DHT22;33252;48.122;11.538;2023-05-10T11:49:07;12.50;99.90
47520;DHT22;33252;48.122;11.538;2023-05-10T11:51:34;12.40;99.90
47520;DHT22;33252;48.122;11.538;2023-05-10T11:54:08;12.50;99.90
47520;DHT22;33252;48.122;11.538;2023-05-10T11:56:34;12.60;99.90
47520;DHT22;33252;48.122;11.538;2023-05-10T11:59:00;12.50;99.90
47520;DHT22;33252;48.122;11.538;2023-05-10T12:01:28;12.50;99.90
47520;DHT22;33252;48.122;11.538;2023-05-10T12:03:56;12.40;99.90
47520;DHT22;33252;48.122;11.538;2023-05-10T12:06:32;12.30;99.90
47520;DHT22;33252;48.122;11.538;2023-05-10T12:09:06;12.50;99.90
47520;DHT22;33252;48.122;11.538;2023-05-10T12:11:37;12.30;99.90
47520;DHT22;33252;48.122;11.538;2023-05-10T12:14:04;12.00;99.90
47520;DHT22;33252;48.122;11.538;2023-05-10T12:16:30;12.00;99.90
47520;DHT22;33252;48.122;11.538;2023-05-10T12:18:58;12.10;99.90
47520;DHT22;33252;48.122;11.538;2023-05-10T12:21:25;12.20;99.90
47520;DHT22;33252;48.122;11.538;2023-05-10T12:23:54;12.00;99.90
47520;DHT22;33252;48.122;11.538;2023-05-10T12:26:23;12.30;99.90
47520;DHT22;33252;48.122;11.538;2023-05-10T12:28:50;12.30;99.90
47520;DHT22;33252;48.122;11.538;2023-05-10T12:31:16;12.50;99.90
47520;DHT22;33252;48.122;11.538;2023-05-10T12:33:45;12.20;99.90
47520;DHT22;33252;48.122;11.538;2023-05-10T12:36:13;12.10;99.90
47520;DHT22;33252;48.122;11.538;2023-05-10T12:38:41;12.30;99.90
47520;DHT22;33252;48.122;11.538;2023-05-10T12:41:14;12.50;99.90
47520;DHT22;33252;48.122;11.538;2023-05-10T12:43:40;12.50;99.90
47520;DHT22;33252;48.122;11.538;2023-05-10T12:46:13;12.50;99.90
47520;DHT22;33252;48.122;11.538;2023-05-10T12:48:41;12.60;99.90
47520;DHT22;33252;48.122;11.538;2023-05-10T12:51:07;12.70;99.90
47520;DHT22;33252;48.122;11.538;2023-05-10T12:53:41;12.60;99.90
47520;DHT22;33252;48.122;11.538;2023-05-10T12:56:07;12.60;99.90
47520;DHT22;33252;48.122;11.538;2023-05-10T12:58:34;12.70;99.90
47520;DHT22;33252;48.122;11.538;2023-05-10T13:01:00;12.70;99.90
47520;DHT22;33252;48.122;11.538;2023-05-10T13:03:26;12.70;99.90
47520;DHT22;33252;48.122;11.538;2023-05-10T13:05:51;12.70;99.90
47520;DHT22;33252;48.122;11.538;2023-05-10T13:08:17;12.70;99.90
47520;DHT22;33252;48.122;11.538;2023-05-10T13:10:43;13.00;99.90
47520;DHT22;33252;48.122;11.538;2023-05-10T13:13:09;13.00;99.90
47520;DHT22;33252;48.122;11.538;2023-05-10T13:15:35;12.80;99.90
47520;DHT22;33252;48.122;11.538;2023-05-10T13:18:00;12.80;99.90
47520;DHT22;33252;48.122;11.538;2023-05-10T13:20:26;12.90;99.90
47520;DHT22;33252;48.122;11.538;2023-05-10T13:22:52;13.00;99.90
47520;DHT22;33252;48.122;11.538;2023-05-10T13:25:18;12.90;99.90
47520;DHT22;33252;48.122;11.538;2023-05-10T13:27:44;12.90;99.90
47520;DHT22;33252;48.122;11.538;2023-05-10T13:30:10;12.90;99.90
47520;DHT22;33252;48.122;11.538;2023-05-10T13:32:36;13.00;99.90
47520;DHT22;33252;48.122;11.538;2023-05-10T13:35:03;12.90;99.90
47520;DHT22;33252;48.122;11.538;2023-05-10T13:37:30;12.80;99.90
47520;DHT22;33252;48.122;11.538;2023-05-10T13:39:55;12.70;99.90
47520;DHT22;33252;48.122;11.538;2023-05-10T13:42:22;12.70;99.90
47520;DHT22;33252;48.122;11.538;2023-05-10T13:44:49;12.70;99.90
47520;DHT22;33252;48.122;11.538;2023-05-10T13:47:15;12.60;99.90
47520;DHT22;33252;48.122;11.538;2023-05-10T13:49:40;12.60;99.90
47520;DHT22;33252;48.122;11.538;2023-05-10T13:52:06;12.70;99.90
47520;DHT22;33252;48.122;11.538;2023-05-10T13:54:35;12.70;99.90
47520;DHT22;33252;48.122;11.538;2023-05-10T13:57:01;12.90;99.90
47520;DHT22;33252;48.122;11.538;2023-05-10T13:59:28;12.70;99.90
47520;DHT22;33252;48.122;11.538;2023-05-10T14:01:54;12.70;99.90
47520;DHT22;33252;48.122;11.538;2023-05-10T14:04:19;12.60;99.90
47520;DHT22;33252;48.122;11.538;2023-05-10T14:06:45;12.60;99.90
47520;DHT22;33252;48.122;11.538;2023-05-10T14:09:11;12.60;99.90
47520;DHT22;33252;48.122;11.538;2023-05-10T14:11:37;12.70;99.90
47520;DHT22;33252;48.122;11.538;2023-05-10T14:14:07;12.80;99.90
47520;DHT22;33252;48.122;11.538;2023-05-10T14:16:32;12.80;99.90
47520;DHT22;33252;48.122;11.538;2023-05-10T14:18:58;12.80;99.90
47520;DHT22;33252;48.122;11.538;2023-05-10T14:21:24;12.60;99.90
47520;DHT22;33252;48.122;11.538;2023-05-10T14:23:50;12.80;99.90
47520;DHT22;33252;48.122;11.538;2023-05-10T14:26:15;12.70;99.90
47520;DHT22;33252;48.122;11.538;2023-05-10T14:28:41;12.70;99.90
47520;DHT22;33252;48.122;11.538;2023-05-10T14:31:07;12.80;99.90
47520;DHT22;33252;48.122;11.538;2023-05-10T14:33:34;12.80;99.90
47520;DHT22;33252;48.122;11.538;2023-05-10T14:35:59;12.90;99.90
47520;DHT22;33252;48.122;11.538;2023-05-10T14:38:25;12.90;99.90
47520;DHT22;33252;48.122;11.538;2023-05-10T14:40:51;12.70;99.90
47520;DHT22;33252;48.122;11.538;2023-05-10T14:43:17;12.70;99.90
47520;DHT22;33252;48.122;11.538;2023-05-10T14:45:43;12.60;99.90
47520;DHT22;33252;48.122;11.538;2023-05-10T14:48:08;12.30;99.90
47520;DHT22;33252;48.122;11.538;2023-05-10T14:50:37;12.40;99.90
47520;DHT22;33252;48.122;11.538;2023-05-10T14:53:03;12.40;99.90
47520;DHT22;33252;48.122;11.538;2023-05-10T14:55:29;12.30;99.90
47520;DHT22;33252;48.122;11.538;2023-05-10T14:57:55;12.40;99.90
47520;DHT22;33252;48.122;11.538;2023-05-10T15:00:21;12.30;99.90
47520;DHT22;33252;48.122;11.538;2023-05-10T15:02:47;12.30;99.90
47520;DHT22;33252;48.122;11.538;2023-05-10T15:05:14;12.00;99.90
47520;DHT22;33252;48.122;11.538;2023-05-10T15:07:39;12.20;99.90
47520;DHT22;33252;48.122;11.538;2023-05-10T15:10:06;12.20;99.90
47520;DHT22;33252;48.122;11.538;2023-05-10T15:12:31;12.00;99.90
47520;DHT22;33252;48.122;11.538;2023-05-10T15:14:57;11.90;99.90
47520;DHT22;33252;48.122;11.538;2023-05-10T15:17:23;11.90;99.90
47520;DHT22;33252;48.122;11.538;2023-05-10T15:19:48;12.00;99.90
47520;DHT22;33252;48.122;11.538;2023-05-10T15:22:14;12.10;99.90
47520;DHT22;33252;48.122;11.538;2023-05-10T15:24:40;12.10;99.90
47520;DHT22;33252;48.122;11.538;2023-05-10T15:27:06;12.10;99.90
47520;DHT22;33252;48.122;11.538;2023-05-10T15:29:32;12.20;99.90
47520;DHT22;33252;48.122;11.538;2023-05-10T15:31:59;12.00;99.90
47520;DHT22;33252;48.122;11.538;2023-05-10T15:34:26;12.10;99.90